sensor_id;sensor_type;location;lat;lon;timestamp;P1;durP1;ratioP1;P2;durP2;ratioP2
36709;SDS011;22694;51.040;3.684;2023-02-18T00:00:09;6.80;;;4.72;;
36709;SDS011;22694;51.040;3.684;2023-02-18T00:02:37;5.13;;;4.60;;
36709;SDS011;22694;51.040;3.684;2023-02-18T00:05:03;7.00;;;5.38;;
36709;SDS011;22694;51.040;3.684;2023-02-18T00:07:33;5.40;;;4.90;;
36709;SDS011;22694;51.040;3.684;2023-02-18T00:10:03;5.38;;;4.88;;
36709;SDS011;22694;51.040;3.684;2023-02-18T00:12:30;4.63;;;4.22;;
36709;SDS011;22694;51.040;3.684;2023-02-18T00:14:56;5.30;;;4.80;;
36709;SDS011;22694;51.040;3.684;2023-02-18T00:17:22;5.10;;;4.60;;
36709;SDS011;22694;51.040;3.684;2023-02-18T00:19:48;4.65;;;4.03;;
36709;SDS011;22694;51.040;3.684;2023-02-18T00:22:13;5.40;;;4.90;;
36709;SDS011;22694;51.040;3.684;2023-02-18T00:24:39;4.90;;;4.38;;
36709;SDS011;22694;51.040;3.684;2023-02-18T00:27:05;4.13;;;3.72;;
36709;SDS011;22694;51.040;3.684;2023-02-18T00:29:31;5.35;;;4.03;;
36709;SDS011;22694;51.040;3.684;2023-02-18T00:31:56;5.00;;;4.10;;
36709;SDS011;22694;51.040;3.684;2023-02-18T00:34:22;5.40;;;4.53;;
36709;SDS011;22694;51.040;3.684;2023-02-18T00:36:48;4.25;;;3.85;;
36709;SDS011;22694;51.040;3.684;2023-02-18T00:39:13;3.88;;;3.58;;
36709;SDS011;22694;51.040;3.684;2023-02-18T00:41:39;5.00;;;3.75;;
36709;SDS011;22694;51.040;3.684;2023-02-18T00:44:06;4.75;;;4.30;;
36709;SDS011;22694;51.040;3.684;2023-02-18T00:46:31;4.65;;;4.22;;
36709;SDS011;22694;51.040;3.684;2023-02-18T00:48:57;4.53;;;4.13;;
36709;SDS011;22694;51.040;3.684;2023-02-18T00:51:23;4.25;;;3.85;;
36709;SDS011;22694;51.040;3.684;2023-02-18T00:53:49;4.60;;;4.20;;
36709;SDS011;22694;51.040;3.684;2023-02-18T00:56:15;4.65;;;3.90;;
36709;SDS011;22694;51.040;3.684;2023-02-18T00:58:42;4.60;;;3.60;;
36709;SDS011;22694;51.040;3.684;2023-02-18T01:01:11;4.55;;;4.15;;
36709;SDS011;22694;51.040;3.684;2023-02-18T01:03:37;4.53;;;4.13;;
36709;SDS011;22694;51.040;3.684;2023-02-18T01:06:04;4.70;;;4.10;;
36709;SDS011;22694;51.040;3.684;2023-02-18T01:08:31;4.45;;;3.80;;
36709;SDS011;22694;51.040;3.684;2023-02-18T01:10:57;4.45;;;4.05;;
36709;SDS011;22694;51.040;3.684;2023-02-18T01:13:23;4.07;;;3.67;;
36709;SDS011;22694;51.040;3.684;2023-02-18T01:15:50;4.28;;;3.88;;
36709;SDS011;22694;51.040;3.684;2023-02-18T01:18:16;5.55;;;4.22;;
36709;SDS011;22694;51.040;3.684;2023-02-18T01:20:42;4.43;;;4.03;;
36709;SDS011;22694;51.040;3.684;2023-02-18T01:23:09;3.90;;;3.60;;
36709;SDS011;22694;51.040;3.684;2023-02-18T01:25:35;4.43;;;3.90;;
36709;SDS011;22694;51.040;3.684;2023-02-18T01:28:02;4.20;;;3.83;;
36709;SDS011;22694;51.040;3.684;2023-02-18T01:30:29;4.57;;;4.13;;
36709;SDS011;22694;51.040;3.684;2023-02-18T01:32:55;5.00;;;4.32;;
36709;SDS011;22694;51.040;3.684;2023-02-18T01:35:21;4.97;;;4.25;;
36709;SDS011;22694;51.040;3.684;2023-02-18T01:37:48;3.97;;;3.67;;
36709;SDS011;22694;51.040;3.684;2023-02-18T01:40:15;4.40;;;4.00;;
36709;SDS011;22694;51.040;3.684;2023-02-18T01:42:46;4.20;;;3.80;;
36709;SDS011;22694;51.040;3.684;2023-02-18T01:48:01;4.97;;;4.47;;
36709;SDS011;22694;51.040;3.684;2023-02-18T01:50:34;4.30;;;4.00;;
36709;SDS011;22694;51.040;3.684;2023-02-18T01:53:05;4.28;;;3.88;;
36709;SDS011;22694;51.040;3.684;2023-02-18T01:55:32;4.60;;;4.20;;
36709;SDS011;22694;51.040;3.684;2023-02-18T01:57:59;3.97;;;3.67;;
36709;SDS011;22694;51.040;3.684;2023-02-18T02:00:26;4.32;;;3.88;;
36709;SDS011;22694;51.040;3.684;2023-02-18T02:02:52;4.35;;;3.95;;
36709;SDS011;22694;51.040;3.684;2023-02-18T02:05:19;4.32;;;3.92;;
36709;SDS011;22694;51.040;3.684;2023-02-18T02:07:46;4.50;;;4.10;;
36709;SDS011;22694;51.040;3.684;2023-02-18T02:10:14;4.32;;;3.92;;
36709;SDS011;22694;51.040;3.684;2023-02-18T02:15:39;3.92;;;3.63;;
36709;SDS011;22694;51.040;3.684;2023-02-18T02:46:30;3.35;;;3.05;;
36709;SDS011;22694;51.040;3.684;2023-02-18T02:54:20;3.33;;;3.03;;
36709;SDS011;22694;51.040;3.684;2023-02-18T02:57:04;3.17;;;2.78;;
36709;SDS011;22694;51.040;3.684;2023-02-18T03:00:00;2.92;;;2.72;;
36709;SDS011;22694;51.040;3.684;2023-02-18T03:11:13;3.30;;;3.00;;
36709;SDS011;22694;51.040;3.684;2023-02-18T03:16:59;2.70;;;2.50;;
36709;SDS011;22694;51.040;3.684;2023-02-18T03:19:35;3.42;;;2.67;;
36709;SDS011;22694;51.040;3.684;2023-02-18T03:22:17;3.40;;;3.08;;
36709;SDS011;22694;51.040;3.684;2023-02-18T03:24:51;3.25;;;2.90;;
36709;SDS011;22694;51.040;3.684;2023-02-18T03:27:35;3.47;;;2.40;;
36709;SDS011;22694;51.040;3.684;2023-02-18T03:32:41;2.20;;;2.00;;
36709;SDS011;22694;51.040;3.684;2023-02-18T03:35:10;2.13;;;2.03;;
36709;SDS011;22694;51.040;3.684;2023-02-18T03:37:41;2.67;;;2.42;;
36709;SDS011;22694;51.040;3.684;2023-02-18T03:40:11;2.20;;;2.00;;
36709;SDS011;22694;51.040;3.684;2023-02-18T03:42:39;2.33;;;2.13;;
36709;SDS011;22694;51.040;3.684;2023-02-18T03:45:05;2.40;;;2.17;;
36709;SDS011;22694;51.040;3.684;2023-02-18T03:47:31;2.05;;;1.92;;
36709;SDS011;22694;51.040;3.684;2023-02-18T03:49:57;1.95;;;1.85;;
36709;SDS011;22694;51.040;3.684;2023-02-18T03:52:23;3.15;;;2.03;;
36709;SDS011;22694;51.040;3.684;2023-02-18T03:54:49;2.22;;;2.03;;
36709;SDS011;22694;51.040;3.684;2023-02-18T03:57:15;1.80;;;1.70;;
36709;SDS011;22694;51.040;3.684;2023-02-18T03:59:40;2.38;;;1.85;;
36709;SDS011;22694;51.040;3.684;2023-02-18T04:02:06;1.83;;;1.55;;
36709;SDS011;22694;51.040;3.684;2023-02-18T04:04:31;2.63;;;1.80;;
36709;SDS011;22694;51.040;3.684;2023-02-18T04:06:57;2.05;;;1.85;;
36709;SDS011;22694;51.040;3.684;2023-02-18T04:09:23;1.92;;;1.73;;
36709;SDS011;22694;51.040;3.684;2023-02-18T04:11:48;1.65;;;1.40;;
36709;SDS011;22694;51.040;3.684;2023-02-18T04:14:14;1.92;;;1.58;;
36709;SDS011;22694;51.040;3.684;2023-02-18T04:16:40;1.70;;;1.60;;
36709;SDS011;22694;51.040;3.684;2023-02-18T04:19:06;1.73;;;1.63;;
36709;SDS011;22694;51.040;3.684;2023-02-18T04:21:32;1.60;;;1.50;;
36709;SDS011;22694;51.040;3.684;2023-02-18T04:23:58;1.50;;;1.40;;
36709;SDS011;22694;51.040;3.684;2023-02-18T04:26:25;1.60;;;1.38;;
36709;SDS011;22694;51.040;3.684;2023-02-18T04:28:51;1.60;;;1.50;;
36709;SDS011;22694;51.040;3.684;2023-02-18T04:31:17;1.67;;;1.30;;
36709;SDS011;22694;51.040;3.684;2023-02-18T04:33:42;1.80;;;1.45;;
36709;SDS011;22694;51.040;3.684;2023-02-18T04:36:08;1.50;;;1.40;;
36709;SDS011;22694;51.040;3.684;2023-02-18T04:38:34;1.83;;;1.35;;
36709;SDS011;22694;51.040;3.684;2023-02-18T04:41:00;1.42;;;1.33;;
36709;SDS011;22694;51.040;3.684;2023-02-18T04:43:25;1.30;;;1.20;;
36709;SDS011;22694;51.040;3.684;2023-02-18T04:45:51;1.33;;;1.20;;
36709;SDS011;22694;51.040;3.684;2023-02-18T04:48:17;1.30;;;1.20;;
36709;SDS011;22694;51.040;3.684;2023-02-18T04:50:43;1.00;;;1.00;;
36709;SDS011;22694;51.040;3.684;2023-02-18T04:53:09;1.35;;;1.25;;
36709;SDS011;22694;51.040;3.684;2023-02-18T04:55:34;1.25;;;1.15;;
36709;SDS011;22694;51.040;3.684;2023-02-18T04:58:00;1.40;;;1.27;;
36709;SDS011;22694;51.040;3.684;2023-02-18T05:00:26;1.23;;;1.10;;
36709;SDS011;22694;51.040;3.684;2023-02-18T05:02:53;1.25;;;1.15;;
36709;SDS011;22694;51.040;3.684;2023-02-18T05:05:19;1.25;;;1.15;;
36709;SDS011;22694;51.040;3.684;2023-02-18T05:07:45;1.67;;;1.13;;
36709;SDS011;22694;51.040;3.684;2023-02-18T05:10:13;1.98;;;1.35;;
36709;SDS011;22694;51.040;3.684;2023-02-18T05:12:40;1.00;;;1.00;;
36709;SDS011;22694;51.040;3.684;2023-02-18T05:15:06;1.48;;;1.38;;
36709;SDS011;22694;51.040;3.684;2023-02-18T05:17:32;1.95;;;1.20;;
36709;SDS011;22694;51.040;3.684;2023-02-18T05:19:58;1.02;;;0.93;;
36709;SDS011;22694;51.040;3.684;2023-02-18T05:22:23;1.25;;;1.10;;
36709;SDS011;22694;51.040;3.684;2023-02-18T05:24:49;1.20;;;1.10;;
36709;SDS011;22694;51.040;3.684;2023-02-18T05:27:15;1.17;;;0.98;;
36709;SDS011;22694;51.040;3.684;2023-02-18T05:29:40;1.10;;;0.90;;
36709;SDS011;22694;51.040;3.684;2023-02-18T05:32:06;1.30;;;1.13;;
36709;SDS011;22694;51.040;3.684;2023-02-18T05:34:31;1.02;;;0.80;;
36709;SDS011;22694;51.040;3.684;2023-02-18T05:36:57;1.85;;;1.10;;
36709;SDS011;22694;51.040;3.684;2023-02-18T05:39:23;1.70;;;1.23;;
36709;SDS011;22694;51.040;3.684;2023-02-18T05:41:48;1.90;;;0.90;;
36709;SDS011;22694;51.040;3.684;2023-02-18T05:44:14;1.52;;;0.98;;
36709;SDS011;22694;51.040;3.684;2023-02-18T05:47:05;1.52;;;1.05;;
36709;SDS011;22694;51.040;3.684;2023-02-18T05:49:32;2.92;;;0.90;;
36709;SDS011;22694;51.040;3.684;2023-02-18T05:51:59;3.03;;;1.02;;
36709;SDS011;22694;51.040;3.684;2023-02-18T05:54:25;2.30;;;1.27;;
36709;SDS011;22694;51.040;3.684;2023-02-18T05:56:51;2.13;;;1.15;;
36709;SDS011;22694;51.040;3.684;2023-02-18T05:59:17;2.92;;;1.23;;
36709;SDS011;22694;51.040;3.684;2023-02-18T06:01:43;3.15;;;1.15;;
36709;SDS011;22694;51.040;3.684;2023-02-18T06:04:09;2.80;;;1.20;;
36709;SDS011;22694;51.040;3.684;2023-02-18T06:06:35;1.67;;;1.10;;
36709;SDS011;22694;51.040;3.684;2023-02-18T06:09:01;3.78;;;1.48;;
36709;SDS011;22694;51.040;3.684;2023-02-18T06:11:27;3.05;;;0.98;;
36709;SDS011;22694;51.040;3.684;2023-02-18T06:13:53;2.65;;;1.30;;
36709;SDS011;22694;51.040;3.684;2023-02-18T06:16:18;4.00;;;1.35;;
36709;SDS011;22694;51.040;3.684;2023-02-18T06:18:44;3.13;;;1.30;;
36709;SDS011;22694;51.040;3.684;2023-02-18T06:21:10;3.72;;;1.00;;
36709;SDS011;22694;51.040;3.684;2023-02-18T06:23:35;3.75;;;1.10;;
36709;SDS011;22694;51.040;3.684;2023-02-18T06:26:01;3.50;;;1.30;;
36709;SDS011;22694;51.040;3.684;2023-02-18T06:28:26;4.68;;;1.15;;
36709;SDS011;22694;51.040;3.684;2023-02-18T06:30:52;4.03;;;1.17;;
36709;SDS011;22694;51.040;3.684;2023-02-18T06:33:18;3.92;;;1.20;;
36709;SDS011;22694;51.040;3.684;2023-02-18T06:35:55;4.97;;;1.27;;
36709;SDS011;22694;51.040;3.684;2023-02-18T06:38:31;5.45;;;1.30;;
36709;SDS011;22694;51.040;3.684;2023-02-18T06:40:58;3.35;;;1.10;;
36709;SDS011;22694;51.040;3.684;2023-02-18T06:43:24;4.10;;;1.00;;
36709;SDS011;22694;51.040;3.684;2023-02-18T06:45:50;3.42;;;1.00;;
36709;SDS011;22694;51.040;3.684;2023-02-18T06:48:16;5.07;;;1.33;;
36709;SDS011;22694;51.040;3.684;2023-02-18T06:50:42;4.32;;;1.38;;
36709;SDS011;22694;51.040;3.684;2023-02-18T06:53:08;3.72;;;1.08;;
36709;SDS011;22694;51.040;3.684;2023-02-18T06:55:34;4.15;;;1.10;;
36709;SDS011;22694;51.040;3.684;2023-02-18T06:58:00;4.28;;;1.33;;
36709;SDS011;22694;51.040;3.684;2023-02-18T07:00:26;4.55;;;1.17;;
36709;SDS011;22694;51.040;3.684;2023-02-18T07:02:51;3.67;;;1.25;;
36709;SDS011;22694;51.040;3.684;2023-02-18T07:05:17;3.42;;;0.88;;
36709;SDS011;22694;51.040;3.684;2023-02-18T07:07:42;1.75;;;0.60;;
36709;SDS011;22694;51.040;3.684;2023-02-18T07:10:09;1.83;;;0.70;;
36709;SDS011;22694;51.040;3.684;2023-02-18T07:12:35;3.75;;;0.93;;
36709;SDS011;22694;51.040;3.684;2023-02-18T07:15:01;2.13;;;0.70;;
36709;SDS011;22694;51.040;3.684;2023-02-18T07:17:27;2.45;;;0.70;;
36709;SDS011;22694;51.040;3.684;2023-02-18T07:19:53;2.83;;;0.82;;
36709;SDS011;22694;51.040;3.684;2023-02-18T07:22:19;3.28;;;1.17;;
36709;SDS011;22694;51.040;3.684;2023-02-18T07:24:45;2.05;;;0.77;;
36709;SDS011;22694;51.040;3.684;2023-02-18T07:27:16;2.78;;;0.90;;
36709;SDS011;22694;51.040;3.684;2023-02-18T07:29:41;4.85;;;1.40;;
36709;SDS011;22694;51.040;3.684;2023-02-18T07:32:07;1.23;;;0.57;;
36709;SDS011;22694;51.040;3.684;2023-02-18T07:34:33;2.83;;;0.80;;
36709;SDS011;22694;51.040;3.684;2023-02-18T07:36:59;2.35;;;0.85;;
36709;SDS011;22694;51.040;3.684;2023-02-18T07:39:25;2.72;;;0.85;;
36709;SDS011;22694;51.040;3.684;2023-02-18T07:41:50;3.35;;;1.05;;
36709;SDS011;22694;51.040;3.684;2023-02-18T07:44:16;2.88;;;0.57;;
36709;SDS011;22694;51.040;3.684;2023-02-18T07:46:41;2.58;;;1.10;;
36709;SDS011;22694;51.040;3.684;2023-02-18T07:49:07;3.63;;;0.85;;
36709;SDS011;22694;51.040;3.684;2023-02-18T07:51:34;3.50;;;1.00;;
36709;SDS011;22694;51.040;3.684;2023-02-18T07:53:59;1.90;;;0.75;;
36709;SDS011;22694;51.040;3.684;2023-02-18T07:56:25;3.17;;;0.80;;
36709;SDS011;22694;51.040;3.684;2023-02-18T07:58:51;3.88;;;1.10;;
36709;SDS011;22694;51.040;3.684;2023-02-18T08:01:16;2.35;;;1.00;;
36709;SDS011;22694;51.040;3.684;2023-02-18T08:03:42;3.17;;;0.70;;
36709;SDS011;22694;51.040;3.684;2023-02-18T08:06:12;4.00;;;1.00;;
36709;SDS011;22694;51.040;3.684;2023-02-18T08:08:46;4.40;;;0.90;;
36709;SDS011;22694;51.040;3.684;2023-02-18T08:11:11;3.40;;;0.70;;
36709;SDS011;22694;51.040;3.684;2023-02-18T08:13:37;2.60;;;0.95;;
36709;SDS011;22694;51.040;3.684;2023-02-18T08:16:03;4.55;;;0.98;;
36709;SDS011;22694;51.040;3.684;2023-02-18T08:18:28;4.00;;;1.17;;
36709;SDS011;22694;51.040;3.684;2023-02-18T08:20:54;3.22;;;0.90;;
36709;SDS011;22694;51.040;3.684;2023-02-18T08:23:20;3.10;;;0.80;;
36709;SDS011;22694;51.040;3.684;2023-02-18T08:25:50;5.43;;;1.10;;
36709;SDS011;22694;51.040;3.684;2023-02-18T08:28:17;3.80;;;0.98;;
36709;SDS011;22694;51.040;3.684;2023-02-18T08:30:44;3.60;;;1.42;;
36709;SDS011;22694;51.040;3.684;2023-02-18T08:33:11;1.83;;;0.57;;
36709;SDS011;22694;51.040;3.684;2023-02-18T08:35:37;3.45;;;1.00;;
36709;SDS011;22694;51.040;3.684;2023-02-18T08:38:02;4.53;;;0.95;;
36709;SDS011;22694;51.040;3.684;2023-02-18T08:40:28;2.90;;;0.73;;
36709;SDS011;22694;51.040;3.684;2023-02-18T08:42:54;3.30;;;0.88;;
36709;SDS011;22694;51.040;3.684;2023-02-18T08:45:19;3.33;;;1.10;;
36709;SDS011;22694;51.040;3.684;2023-02-18T08:47:45;5.50;;;0.98;;
36709;SDS011;22694;51.040;3.684;2023-02-18T08:50:11;5.63;;;1.20;;
36709;SDS011;22694;51.040;3.684;2023-02-18T08:52:37;1.75;;;0.60;;
36709;SDS011;22694;51.040;3.684;2023-02-18T08:55:03;4.38;;;1.13;;
36709;SDS011;22694;51.040;3.684;2023-02-18T08:57:29;3.72;;;1.35;;
36709;SDS011;22694;51.040;3.684;2023-02-18T08:59:55;4.18;;;1.00;;
36709;SDS011;22694;51.040;3.684;2023-02-18T09:02:20;4.13;;;1.00;;
36709;SDS011;22694;51.040;3.684;2023-02-18T09:04:46;3.53;;;0.80;;
36709;SDS011;22694;51.040;3.684;2023-02-18T09:07:12;3.47;;;1.00;;
36709;SDS011;22694;51.040;3.684;2023-02-18T09:09:38;2.85;;;1.13;;
36709;SDS011;22694;51.040;3.684;2023-02-18T09:12:04;4.97;;;1.27;;
36709;SDS011;22694;51.040;3.684;2023-02-18T09:14:30;3.67;;;0.75;;
36709;SDS011;22694;51.040;3.684;2023-02-18T09:16:56;3.47;;;0.80;;
36709;SDS011;22694;51.040;3.684;2023-02-18T09:19:22;2.00;;;0.65;;
36709;SDS011;22694;51.040;3.684;2023-02-18T09:21:49;1.40;;;0.70;;
36709;SDS011;22694;51.040;3.684;2023-02-18T09:24:17;2.30;;;0.77;;
36709;SDS011;22694;51.040;3.684;2023-02-18T09:26:43;0.90;;;0.47;;
36709;SDS011;22694;51.040;3.684;2023-02-18T09:29:09;2.38;;;0.70;;
36709;SDS011;22694;51.040;3.684;2023-02-18T09:31:34;1.98;;;0.60;;
36709;SDS011;22694;51.040;3.684;2023-02-18T09:34:01;2.22;;;0.70;;
36709;SDS011;22694;51.040;3.684;2023-02-18T09:36:28;1.48;;;0.60;;
36709;SDS011;22694;51.040;3.684;2023-02-18T09:38:54;2.75;;;0.70;;
36709;SDS011;22694;51.040;3.684;2023-02-18T09:44:12;2.83;;;0.70;;
36709;SDS011;22694;51.040;3.684;2023-02-18T09:49:16;2.88;;;0.82;;
36709;SDS011;22694;51.040;3.684;2023-02-18T09:51:45;2.90;;;0.68;;
36709;SDS011;22694;51.040;3.684;2023-02-18T09:54:11;1.23;;;0.60;;
36709;SDS011;22694;51.040;3.684;2023-02-18T09:56:42;2.58;;;0.68;;
36709;SDS011;22694;51.040;3.684;2023-02-18T09:59:14;1.40;;;0.65;;
36709;SDS011;22694;51.040;3.684;2023-02-18T10:01:48;2.17;;;0.70;;
36709;SDS011;22694;51.040;3.684;2023-02-18T10:04:20;2.83;;;0.93;;
36709;SDS011;22694;51.040;3.684;2023-02-18T10:06:54;3.60;;;1.20;;
36709;SDS011;22694;51.040;3.684;2023-02-18T10:09:32;2.78;;;0.90;;
36709;SDS011;22694;51.040;3.684;2023-02-18T10:12:13;4.43;;;0.85;;
36709;SDS011;22694;51.040;3.684;2023-02-18T10:14:43;3.25;;;0.73;;
36709;SDS011;22694;51.040;3.684;2023-02-18T10:17:12;3.20;;;0.68;;
36709;SDS011;22694;51.040;3.684;2023-02-18T10:19:41;3.17;;;0.95;;
36709;SDS011;22694;51.040;3.684;2023-02-18T10:22:10;2.47;;;0.77;;
36709;SDS011;22694;51.040;3.684;2023-02-18T10:24:48;3.42;;;1.00;;
36709;SDS011;22694;51.040;3.684;2023-02-18T10:29:49;2.67;;;0.70;;
36709;SDS011;22694;51.040;3.684;2023-02-18T10:34:52;4.32;;;0.98;;
36709;SDS011;22694;51.040;3.684;2023-02-18T10:37:42;6.15;;;1.40;;
36709;SDS011;22694;51.040;3.684;2023-02-18T10:51:22;3.17;;;0.68;;
36709;SDS011;22694;51.040;3.684;2023-02-18T10:53:51;3.25;;;1.20;;
36709;SDS011;22694;51.040;3.684;2023-02-18T10:59:11;3.80;;;0.90;;
36709;SDS011;22694;51.040;3.684;2023-02-18T11:01:37;3.13;;;0.90;;
36709;SDS011;22694;51.040;3.684;2023-02-18T11:04:06;1.75;;;0.93;;
36709;SDS011;22694;51.040;3.684;2023-02-18T11:06:44;3.88;;;1.42;;
36709;SDS011;22694;51.040;3.684;2023-02-18T11:12:06;4.22;;;1.55;;
36709;SDS011;22694;51.040;3.684;2023-02-18T11:14:47;6.10;;;1.45;;
36709;SDS011;22694;51.040;3.684;2023-02-18T11:19:52;4.03;;;1.20;;
36709;SDS011;22694;51.040;3.684;2023-02-18T11:22:21;3.25;;;1.17;;
36709;SDS011;22694;51.040;3.684;2023-02-18T11:24:54;3.10;;;0.93;;
36709;SDS011;22694;51.040;3.684;2023-02-18T11:27:34;3.25;;;1.33;;
36709;SDS011;22694;51.040;3.684;2023-02-18T11:30:13;6.32;;;1.83;;
36709;SDS011;22694;51.040;3.684;2023-02-18T11:32:41;4.00;;;1.70;;
36709;SDS011;22694;51.040;3.684;2023-02-18T11:35:15;5.85;;;2.33;;
36709;SDS011;22694;51.040;3.684;2023-02-18T11:37:46;13.82;;;5.50;;
36709;SDS011;22694;51.040;3.684;2023-02-18T11:43:04;72.05;;;22.88;;
36709;SDS011;22694;51.040;3.684;2023-02-18T11:45:35;40.35;;;11.43;;
36709;SDS011;22694;51.040;3.684;2023-02-18T11:48:01;27.50;;;9.98;;
36709;SDS011;22694;51.040;3.684;2023-02-18T11:50:33;27.92;;;9.80;;
36709;SDS011;22694;51.040;3.684;2023-02-18T11:53:00;25.45;;;10.02;;
36709;SDS011;22694;51.040;3.684;2023-02-18T11:55:52;25.65;;;10.10;;
36709;SDS011;22694;51.040;3.684;2023-02-18T11:58:20;29.33;;;10.40;;
36709;SDS011;22694;51.040;3.684;2023-02-18T12:00:46;27.02;;;11.30;;
36709;SDS011;22694;51.040;3.684;2023-02-18T12:06:23;25.50;;;9.60;;
36709;SDS011;22694;51.040;3.684;2023-02-18T12:08:55;22.15;;;9.25;;
36709;SDS011;22694;51.040;3.684;2023-02-18T12:11:33;22.98;;;9.32;;
36709;SDS011;22694;51.040;3.684;2023-02-18T12:14:07;20.83;;;8.68;;
36709;SDS011;22694;51.040;3.684;2023-02-18T12:27:56;44.72;;;15.10;;
36709;SDS011;22694;51.040;3.684;2023-02-18T12:30:39;30.85;;;12.82;;
36709;SDS011;22694;51.040;3.684;2023-02-18T12:47:55;21.27;;;8.35;;
36709;SDS011;22694;51.040;3.684;2023-02-18T12:53:23;18.60;;;6.55;;
36709;SDS011;22694;51.040;3.684;2023-02-18T12:56:09;19.42;;;7.18;;
36709;SDS011;22694;51.040;3.684;2023-02-18T12:59:10;19.70;;;6.93;;
36709;SDS011;22694;51.040;3.684;2023-02-18T13:13:16;13.95;;;5.78;;
36709;SDS011;22694;51.040;3.684;2023-02-18T13:16:09;12.77;;;5.22;;
36709;SDS011;22694;51.040;3.684;2023-02-18T13:21:42;11.18;;;5.43;;
36709;SDS011;22694;51.040;3.684;2023-02-18T13:24:10;13.10;;;4.68;;
36709;SDS011;22694;51.040;3.684;2023-02-18T13:26:39;11.23;;;4.45;;
36709;SDS011;22694;51.040;3.684;2023-02-18T13:29:15;12.63;;;4.40;;
36709;SDS011;22694;51.040;3.684;2023-02-18T13:34:38;10.98;;;3.72;;
36709;SDS011;22694;51.040;3.684;2023-02-18T13:39:53;9.68;;;3.63;;
36709;SDS011;22694;51.040;3.684;2023-02-18T13:42:26;8.00;;;3.53;;
36709;SDS011;22694;51.040;3.684;2023-02-18T13:45:01;8.43;;;3.53;;
36709;SDS011;22694;51.040;3.684;2023-02-18T13:47:50;7.90;;;2.95;;
36709;SDS011;22694;51.040;3.684;2023-02-18T13:52:50;10.05;;;3.35;;
36709;SDS011;22694;51.040;3.684;2023-02-18T13:55:17;7.93;;;2.83;;
36709;SDS011;22694;51.040;3.684;2023-02-18T13:57:46;7.28;;;2.60;;
36709;SDS011;22694;51.040;3.684;2023-02-18T14:00:15;8.90;;;2.53;;
36709;SDS011;22694;51.040;3.684;2023-02-18T14:03:00;6.22;;;2.95;;
36709;SDS011;22694;51.040;3.684;2023-02-18T14:05:43;5.50;;;2.50;;
36709;SDS011;22694;51.040;3.684;2023-02-18T14:08:13;9.07;;;2.67;;
36709;SDS011;22694;51.040;3.684;2023-02-18T14:13:40;5.38;;;2.15;;
36709;SDS011;22694;51.040;3.684;2023-02-18T14:16:08;7.28;;;2.22;;
36709;SDS011;22694;51.040;3.684;2023-02-18T14:26:17;7.00;;;2.60;;
36709;SDS011;22694;51.040;3.684;2023-02-18T14:31:45;4.65;;;1.95;;
36709;SDS011;22694;51.040;3.684;2023-02-18T14:37:35;5.18;;;1.60;;
36709;SDS011;22694;51.040;3.684;2023-02-18T14:40:14;6.40;;;1.77;;
36709;SDS011;22694;51.040;3.684;2023-02-18T14:50:29;7.15;;;2.58;;
36709;SDS011;22694;51.040;3.684;2023-02-18T14:52:57;6.40;;;2.38;;
36709;SDS011;22694;51.040;3.684;2023-02-18T14:55:29;11.25;;;2.60;;
36709;SDS011;22694;51.040;3.684;2023-02-18T14:58:02;7.13;;;2.10;;
36709;SDS011;22694;51.040;3.684;2023-02-18T15:00:51;7.28;;;1.70;;
36709;SDS011;22694;51.040;3.684;2023-02-18T15:03:17;4.18;;;1.77;;
36709;SDS011;22694;51.040;3.684;2023-02-18T15:05:45;4.25;;;1.73;;
36709;SDS011;22694;51.040;3.684;2023-02-18T15:10:48;3.45;;;1.73;;
36709;SDS011;22694;51.040;3.684;2023-02-18T15:13:37;4.88;;;1.80;;
36709;SDS011;22694;51.040;3.684;2023-02-18T15:16:08;5.20;;;1.92;;
36709;SDS011;22694;51.040;3.684;2023-02-18T15:21:28;4.20;;;1.48;;
36709;SDS011;22694;51.040;3.684;2023-02-18T15:23:53;5.10;;;1.92;;
36709;SDS011;22694;51.040;3.684;2023-02-18T15:26:23;5.38;;;1.88;;
36709;SDS011;22694;51.040;3.684;2023-02-18T15:29:02;5.10;;;1.90;;
36709;SDS011;22694;51.040;3.684;2023-02-18T15:31:31;4.38;;;1.65;;
36709;SDS011;22694;51.040;3.684;2023-02-18T15:34:00;4.95;;;1.50;;
36709;SDS011;22694;51.040;3.684;2023-02-18T15:36:26;5.50;;;1.67;;
36709;SDS011;22694;51.040;3.684;2023-02-18T15:38:52;4.13;;;1.52;;
36709;SDS011;22694;51.040;3.684;2023-02-18T15:41:18;3.72;;;1.30;;
36709;SDS011;22694;51.040;3.684;2023-02-18T15:46:19;4.23;;;1.33;;
36709;SDS011;22694;51.040;3.684;2023-02-18T15:48:47;4.20;;;1.42;;
36709;SDS011;22694;51.040;3.684;2023-02-18T15:51:21;3.17;;;1.25;;
36709;SDS011;22694;51.040;3.684;2023-02-18T15:53:51;3.80;;;1.30;;
36709;SDS011;22694;51.040;3.684;2023-02-18T15:56:26;4.15;;;1.60;;
36709;SDS011;22694;51.040;3.684;2023-02-18T15:59:18;3.67;;;1.50;;
36709;SDS011;22694;51.040;3.684;2023-02-18T16:01:51;2.88;;;1.40;;
36709;SDS011;22694;51.040;3.684;2023-02-18T16:04:19;3.85;;;1.30;;
36709;SDS011;22694;51.040;3.684;2023-02-18T16:06:53;2.47;;;1.10;;
36709;SDS011;22694;51.040;3.684;2023-02-18T16:12:00;4.07;;;1.45;;
36709;SDS011;22694;51.040;3.684;2023-02-18T16:19:40;4.50;;;1.30;;
36709;SDS011;22694;51.040;3.684;2023-02-18T16:22:35;2.85;;;1.23;;
36709;SDS011;22694;51.040;3.684;2023-02-18T16:25:13;5.10;;;1.55;;
36709;SDS011;22694;51.040;3.684;2023-02-18T16:30:24;3.97;;;1.42;;
36709;SDS011;22694;51.040;3.684;2023-02-18T16:32:52;5.00;;;1.73;;
36709;SDS011;22694;51.040;3.684;2023-02-18T16:35:19;4.90;;;1.40;;
36709;SDS011;22694;51.040;3.684;2023-02-18T16:37:47;3.47;;;1.20;;
36709;SDS011;22694;51.040;3.684;2023-02-18T16:43:24;3.92;;;1.33;;
36709;SDS011;22694;51.040;3.684;2023-02-18T16:46:04;6.38;;;2.13;;
36709;SDS011;22694;51.040;3.684;2023-02-18T16:48:37;7.72;;;2.00;;
36709;SDS011;22694;51.040;3.684;2023-02-18T16:53:47;3.50;;;1.52;;
36709;SDS011;22694;51.040;3.684;2023-02-18T16:56:14;3.83;;;1.80;;
36709;SDS011;22694;51.040;3.684;2023-02-18T16:58:41;4.85;;;1.73;;
36709;SDS011;22694;51.040;3.684;2023-02-18T17:01:09;3.60;;;1.50;;
36709;SDS011;22694;51.040;3.684;2023-02-18T17:03:55;6.65;;;2.20;;
36709;SDS011;22694;51.040;3.684;2023-02-18T17:06:22;3.60;;;1.40;;
36709;SDS011;22694;51.040;3.684;2023-02-18T17:08:47;4.50;;;1.70;;
36709;SDS011;22694;51.040;3.684;2023-02-18T17:11:15;3.53;;;1.52;;
36709;SDS011;22694;51.040;3.684;2023-02-18T17:13:45;3.75;;;1.60;;
36709;SDS011;22694;51.040;3.684;2023-02-18T17:16:11;4.53;;;1.55;;
36709;SDS011;22694;51.040;3.684;2023-02-18T17:18:37;5.57;;;2.13;;
36709;SDS011;22694;51.040;3.684;2023-02-18T17:21:02;3.90;;;1.80;;
36709;SDS011;22694;51.040;3.684;2023-02-18T17:23:28;3.17;;;1.58;;
36709;SDS011;22694;51.040;3.684;2023-02-18T17:25:54;2.80;;;1.55;;
36709;SDS011;22694;51.040;3.684;2023-02-18T17:28:20;2.75;;;1.63;;
36709;SDS011;22694;51.040;3.684;2023-02-18T17:30:47;3.92;;;1.80;;
36709;SDS011;22694;51.040;3.684;2023-02-18T17:33:17;4.40;;;2.08;;
36709;SDS011;22694;51.040;3.684;2023-02-18T17:35:43;5.40;;;2.03;;
36709;SDS011;22694;51.040;3.684;2023-02-18T17:38:10;3.35;;;1.65;;
36709;SDS011;22694;51.040;3.684;2023-02-18T17:40:40;4.68;;;2.42;;
36709;SDS011;22694;51.040;3.684;2023-02-18T17:43:05;5.10;;;2.05;;
36709;SDS011;22694;51.040;3.684;2023-02-18T17:45:39;4.60;;;1.95;;
36709;SDS011;22694;51.040;3.684;2023-02-18T17:48:16;5.05;;;2.40;;
36709;SDS011;22694;51.040;3.684;2023-02-18T17:50:42;4.57;;;2.20;;
36709;SDS011;22694;51.040;3.684;2023-02-18T17:53:11;4.50;;;1.90;;
36709;SDS011;22694;51.040;3.684;2023-02-18T17:55:37;2.78;;;2.00;;
36709;SDS011;22694;51.040;3.684;2023-02-18T17:58:04;2.83;;;1.88;;
36709;SDS011;22694;51.040;3.684;2023-02-18T18:00:33;4.38;;;1.90;;
36709;SDS011;22694;51.040;3.684;2023-02-18T18:03:00;4.80;;;2.47;;
36709;SDS011;22694;51.040;3.684;2023-02-18T18:05:31;3.72;;;2.58;;